KSDY/SDY METAR and TAF weather

Enter ICAO airport designator
Station Type Date Time Source
KSDY METAR 2019/08/25 01:56 UTC NOAA

KSDY 250156Z AUTO 22004KT 10SM CLR 25/18 A2971 RMK AO2 SLP456 T02500178


Station Type Date Time Source
KSDY Decoded METAR 2019/08/25 01:56 UTC NOAA

Station name not available
Aug 24, 2019 - 09:56 PM EDT / 2019.08.25 0156 UTC
Wind: from the SW (220 degrees) at 5 MPH (4 KT):0
Visibility: 10 mile(s):0
Sky conditions: clear
Temperature: 77.0 F (25.0 C)
Dew Point: 64.0 F (17.8 C)
Relative Humidity: 64%
Pressure (altimeter): 29.71 in. Hg (1006 hPa)
ob: KSDY 250156Z AUTO 22004KT 10SM CLR 25/18 A2971 RMK AO2 SLP456 T02500178
cycle: 2

Station Type Date Time Source
KSDY TAF 2019/08/24 18:30 UTC NOAA

TAF KSDY 241727Z 2418/2518 VRB06KT P6SM SCT120
FM242000 19007KT P6SM SCT150
FM250300 VRB05KT P6SM OVC100

Example: see airport list